Time;durP1;ratioP1;P1;durP2;ratioP2;P2;SDS_P1;SDS_P2;PMS_P1;PMS_P2;Temp;Humidity;BMP_temperature;BMP_pressure;BME280_temperature;BME280_humidity;BME280_pressure;Samples;Min_cycle;Max_cycle;Signal;HPM_P1;HPM_P2
2022/01/30 09:11:46;;;;;;;10.43;2.80;;;5.10;99.90;;;;;;5148699;27;88996;-82
2022/01/30 09:14:12;;;;;;;7.05;2.70;;;5.10;99.90;;;;;;5129907;27;88935;-82
2022/01/30 09:16:37;;;;;;;11.23;2.78;;;5.10;99.90;;;;;;5124835;27;89066;-81
2022/01/30 09:19:03;;;;;;;14.73;2.97;;;5.20;99.90;;;;;;5099740;27;92915;-77
2022/01/30 09:21:29;;;;;;;9.88;2.72;;;5.40;99.90;;;;;;5118827;27;88936;-75
2022/01/30 09:23:55;;;;;;;12.15;2.58;;;5.50;99.90;;;;;;5118532;27;89343;-77
2022/01/30 09:26:21;;;;;;;15.23;2.78;;;5.70;99.90;;;;;;5099585;27;88965;-75
2022/01/30 09:28:46;;;;;;;10.90;2.30;;;5.80;99.90;;;;;;5099570;27;92627;-78
2022/01/30 09:31:12;;;;;;;11.10;2.15;;;6.00;99.90;;;;;;5114854;27;88760;-78
2022/01/30 09:33:39;;;;;;;15.23;2.63;;;6.10;99.90;;;;;;5080636;27;89068;-78
2022/01/30 09:36:05;;;;;;;9.10;2.00;;;6.20;99.90;;;;;;5082044;27;88842;-79
2022/01/30 09:38:30;;;;;;;12.65;3.42;;;6.20;99.90;;;;;;5081133;27;91517;-80
2022/01/30 09:40:57;;;;;;;10.05;2.03;;;6.40;99.90;;;;;;5100007;27;88832;-78
2022/01/30 09:43:22;;;;;;;12.10;2.42;;;6.50;99.90;;;;;;5098838;27;88907;-76
2022/01/30 09:45:50;;;;;;;11.82;2.33;;;6.60;99.90;;;;;;5099264;27;89173;-76
2022/01/30 09:48:17;;;;;;;9.15;2.08;;;6.70;99.90;;;;;;5097214;27;89810;-77
2022/01/30 09:50:43;;;;;;;13.57;2.60;;;6.80;99.90;;;;;;5079325;27;91772;-77
2022/01/30 09:53:09;;;;;;;14.27;2.85;;;6.90;99.90;;;;;;5101858;27;89002;-81
2022/01/30 09:55:35;;;;;;;11.60;2.67;;;7.00;99.90;;;;;;5103884;27;89175;-83
2022/01/30 09:58:00;;;;;;;13.88;2.50;;;7.10;99.90;;;;;;5102118;27;90090;-80
2022/01/30 10:00:26;;;;;;;11.20;2.40;;;7.30;99.90;;;;;;5080352;27;91032;-80
2022/01/30 10:02:51;;;;;;;11.35;2.22;;;7.40;99.90;;;;;;5101553;27;89146;-85
2022/01/30 10:05:18;;;;;;;10.43;2.25;;;7.50;99.90;;;;;;5081256;27;89264;-85
2022/01/30 10:07:48;;;;;;;10.90;2.08;;;7.50;99.90;;;;;;5080852;27;92780;-84
2022/01/30 10:10:17;;;;;;;14.85;2.15;;;7.70;99.90;;;;;;5080028;27;92698;-85
2022/01/30 10:13:00;;;;;;;8.13;2.00;;;7.90;99.90;;;;;;5100807;27;88951;-85
2022/01/30 10:15:25;;;;;;;10.63;2.65;;;8.00;99.90;;;;;;5082181;27;89248;-83
2022/01/30 10:17:51;;;;;;;10.45;2.28;;;8.20;99.90;;;;;;5081113;27;91121;-83
2022/01/30 10:20:25;;;;;;;8.75;2.33;;;8.30;99.90;;;;;;5081723;27;91269;-84
2022/01/30 10:22:54;;;;;;;5.63;1.48;;;8.20;99.90;;;;;;5069755;27;88841;-84
2022/01/30 10:25:26;;;;;;;12.38;2.10;;;8.20;99.90;;;;;;5069462;27;89354;-81
2022/01/30 10:28:10;;;;;;;9.02;1.98;;;8.20;99.90;;;;;;5068187;27;92134;-81
2022/01/30 10:30:41;;;;;;;11.57;3.53;;;8.50;99.90;;;;;;5076746;27;92334;-80
2022/01/30 10:33:12;;;;;;;7.05;1.70;;;8.50;99.90;;;;;;5118135;27;88998;-80
2022/01/30 10:35:57;;;;;;;12.23;2.25;;;8.50;99.90;;;;;;5093240;27;88999;-81
2022/01/30 10:38:26;;;;;;;9.63;2.10;;;8.40;99.90;;;;;;5106543;27;90206;-80
2022/01/30 10:41:09;;;;;;;9.00;2.10;;;8.30;99.90;;;;;;5078646;27;91469;-80
2022/01/30 10:44:04;;;;;;;7.35;1.60;;;7.90;99.90;;;;;;5105497;27;88909;-78
2022/01/30 10:46:32;;;;;;;7.75;1.77;;;7.80;99.90;;;;;;5085879;27;89078;-79
2022/01/30 10:48:59;;;;;;;8.40;1.73;;;8.10;99.90;;;;;;5085268;27;91990;-78
2022/01/30 10:51:26;;;;;;;9.43;2.05;;;8.00;99.90;;;;;;5091310;27;88979;-77
2022/01/30 10:53:52;;;;;;;8.10;1.90;;;7.90;99.90;;;;;;5082171;27;88940;-77
2022/01/30 10:56:27;;;;;;;8.02;1.80;;;7.90;99.90;;;;;;5082795;27;90058;-77
2022/01/30 10:59:12;;;;;;;6.18;1.60;;;7.70;99.90;;;;;;5083251;27;89873;-77
2022/01/30 11:01:44;;;;;;;5.95;1.42;;;7.60;99.90;;;;;;5079939;27;91236;-78
2022/01/30 11:04:20;;;;;;;6.35;1.50;;;7.50;99.90;;;;;;5082614;27;89524;-78
2022/01/30 11:06:46;;;;;;;8.40;1.67;;;7.30;99.90;;;;;;5082845;27;89054;-79
2022/01/30 11:09:15;;;;;;;8.32;1.67;;;7.10;99.90;;;;;;5082276;27;90232;-77
2022/01/30 11:11:50;;;;;;;10.55;2.08;;;7.00;99.90;;;;;;5071858;27;92285;-78
2022/01/30 11:14:19;;;;;;;8.35;1.90;;;6.90;99.90;;;;;;5071201;27;89051;-78
2022/01/30 11:17:07;;;;;;;9.55;2.05;;;6.90;99.90;;;;;;5064245;27;89237;-78
2022/01/30 11:19:35;;;;;;;9.25;2.17;;;6.80;99.90;;;;;;5063561;27;91671;-78
2022/01/30 11:22:05;;;;;;;7.75;1.63;;;7.00;99.90;;;;;;5102105;27;89539;-78
2022/01/30 11:24:34;;;;;;;8.73;2.10;;;7.10;99.90;;;;;;5103780;27;89337;-78
2022/01/30 11:27:03;;;;;;;6.30;1.30;;;7.20;99.90;;;;;;5084588;27;89050;-78
2022/01/30 11:29:29;;;;;;;7.03;1.40;;;7.20;99.90;;;;;;5102888;27;89023;-81
2022/01/30 11:31:55;;;;;;;7.72;1.40;;;7.30;99.90;;;;;;5083892;27;91296;-77
2022/01/30 11:34:23;;;;;;;9.10;1.83;;;7.40;99.90;;;;;;5101444;27;88968;-77
2022/01/30 11:36:49;;;;;;;6.65;1.50;;;7.30;99.90;;;;;;5084402;27;89221;-78
2022/01/30 11:39:20;;;;;;;5.35;1.70;;;7.10;99.90;;;;;;5085150;27;91803;-78
2022/01/30 11:42:10;;;;;;;11.02;1.75;;;7.00;99.90;;;;;;5084696;27;90837;-77
2022/01/30 11:44:36;;;;;;;9.40;1.80;;;7.00;99.90;;;;;;5103698;27;88968;-78
2022/01/30 11:47:02;;;;;;;7.97;1.50;;;7.10;99.90;;;;;;5103604;27;89069;-77
2022/01/30 11:49:38;;;;;;;6.28;1.38;;;7.20;99.90;;;;;;5103346;27;88908;-78
2022/01/30 11:52:04;;;;;;;6.30;1.38;;;7.30;99.90;;;;;;5083178;27;91926;-78
2022/01/30 11:54:34;;;;;;;7.72;2.63;;;7.40;99.90;;;;;;5084066;27;89087;-78
2022/01/30 11:57:00;;;;;;;9.90;2.47;;;7.30;99.90;;;;;;5103232;27;89531;-77
2022/01/30 11:59:39;;;;;;;9.57;2.33;;;7.40;99.90;;;;;;5083644;27;92793;-78
2022/01/30 12:02:24;;;;;;;7.38;1.70;;;7.50;99.90;;;;;;5102391;27;88920;-77
2022/01/30 12:04:57;;;;;;;6.97;2.00;;;7.50;99.90;;;;;;5104328;27;88963;-78
2022/01/30 12:07:42;;;;;;;8.43;1.83;;;7.50;99.90;;;;;;5102323;27;89680;-82
2022/01/30 12:10:20;;;;;;;12.20;2.83;;;7.40;99.90;;;;;;5102099;27;91300;-79
2022/01/30 12:13:06;;;;;;;8.93;2.47;;;7.30;99.90;;;;;;5083311;27;91409;-78
2022/01/30 12:15:42;;;;;;;8.63;2.53;;;7.10;99.90;;;;;;5084496;27;88888;-82
2022/01/30 12:18:29;;;;;;;14.82;2.92;;;7.20;99.90;;;;;;5103165;27;88928;-79
2022/01/30 12:21:01;;;;;;;8.90;3.10;;;7.20;99.90;;;;;;5082863;27;92190;-79
2022/01/30 12:23:38;;;;;;;9.50;3.42;;;7.30;99.90;;;;;;5110157;22;89634;-77
2022/01/30 12:26:06;;;;;;;8.57;1.88;;;7.40;99.90;;;;;;5042808;28;88843;-80
2022/01/30 12:28:44;;;;;;;9.57;1.85;;;7.40;99.90;;;;;;5043098;28;88934;-79
2022/01/30 12:31:38;;;;;;;8.02;1.75;;;7.60;99.90;;;;;;5042660;28;89088;-80
2022/01/30 12:34:14;;;;;;;11.55;2.00;;;7.70;99.90;;;;;;5023332;28;89047;-79
2022/01/30 12:36:42;;;;;;;7.97;1.88;;;7.90;99.90;;;;;;5041963;28;89326;-77
2022/01/30 12:39:11;;;;;;;7.03;2.30;;;8.00;99.90;;;;;;5041391;28;89532;-76
2022/01/30 12:41:39;;;;;;;7.47;2.08;;;8.10;99.90;;;;;;5040259;28;89696;-77
2022/01/30 12:44:13;;;;;;;10.02;1.92;;;8.20;99.90;;;;;;5040757;27;90874;-78
2022/01/30 12:46:48;;;;;;;8.57;1.80;;;8.40;99.90;;;;;;5041816;28;88927;-77
2022/01/30 12:49:26;;;;;;;9.65;1.90;;;8.60;99.90;;;;;;5043053;28;88903;-77
2022/01/30 12:51:56;;;;;;;6.20;1.52;;;8.60;99.90;;;;;;5023921;28;91900;-78
2022/01/30 12:54:28;;;;;;;7.38;1.90;;;8.70;99.90;;;;;;5040669;28;89015;-76
2022/01/30 12:56:55;;;;;;;5.70;2.00;;;9.00;99.90;;;;;;5043845;28;88988;-77
2022/01/30 12:59:25;;;;;;;6.53;1.65;;;9.10;99.90;;;;;;5043493;28;89156;-77
2022/01/30 13:01:51;;;;;;;7.05;1.52;;;9.20;99.90;;;;;;5042091;28;89034;-76
2022/01/30 13:04:23;;;;;;;11.68;1.80;;;9.30;99.90;;;;;;5024442;28;91221;-77
2022/01/30 13:06:51;;;;;;;9.40;2.38;;;9.10;99.90;;;;;;5041196;28;88975;-76
2022/01/30 13:09:22;;;;;;;5.93;1.70;;;8.70;99.90;;;;;;5044221;28;88825;-77
2022/01/30 13:11:56;;;;;;;9.77;3.35;;;8.40;99.90;;;;;;5042734;28;89111;-77
2022/01/30 13:14:30;;;;;;;14.75;3.10;;;8.10;99.90;;;;;;5041344;28;89626;-78
2022/01/30 13:16:56;;;;;;;11.00;3.30;;;7.90;99.90;;;;;;5021577;28;89022;-79
2022/01/30 13:19:29;;;;;;;8.15;2.50;;;7.80;99.90;;;;;;5040268;28;88885;-78
2022/01/30 13:21:54;;;;;;;8.43;2.05;;;7.70;99.90;;;;;;5022187;28;92936;-78
2022/01/30 13:24:20;;;;;;;8.95;1.85;;;7.60;99.90;;;;;;5038127;28;89392;-79
2022/01/30 13:26:47;;;;;;;9.45;1.90;;;7.60;99.90;;;;;;5021797;28;89055;-78
2022/01/30 13:29:21;;;;;;;8.10;2.30;;;7.70;99.90;;;;;;5040063;28;89077;-77
2022/01/30 13:31:52;;;;;;;7.97;1.75;;;7.90;99.90;;;;;;5039677;28;89977;-78
2022/01/30 13:34:19;;;;;;;5.15;1.60;;;8.00;99.90;;;;;;5039510;28;89054;-80
2022/01/30 13:36:53;;;;;;;5.82;1.67;;;8.10;99.90;;;;;;5021806;28;90123;-77
2022/01/30 13:39:26;;;;;;;6.60;1.25;;;8.20;99.90;;;;;;5040254;28;89387;-77
2022/01/30 13:42:00;;;;;;;7.32;2.03;;;8.20;99.90;;;;;;5039233;28;89888;-77
2022/01/30 13:45:03;;;;;;;7.93;2.00;;;8.10;99.90;;;;;;5020524;28;90852;-78
2022/01/30 13:47:29;;;;;;;7.20;2.00;;;8.00;99.90;;;;;;5021392;28;89082;-77
2022/01/30 13:49:55;;;;;;;9.02;2.25;;;8.00;99.90;;;;;;5043103;28;88943;-78
2022/01/30 13:52:20;;;;;;;6.68;1.50;;;7.80;99.90;;;;;;5023721;28;92700;-79
2022/01/30 13:55:00;;;;;;;6.25;1.60;;;7.80;99.90;;;;;;5038699;28;88972;-77
2022/01/30 13:57:34;;;;;;;8.57;1.70;;;7.80;99.90;;;;;;5022782;28;88952;-78
2022/01/30 14:00:19;;;;;;;5.15;1.83;;;7.80;99.90;;;;;;5043894;28;88893;-83
2022/01/30 14:03:04;;;;;;;11.18;1.95;;;7.70;99.90;;;;;;5042643;28;89877;-78
2022/01/30 14:05:34;;;;;;;8.05;1.45;;;7.60;99.90;;;;;;5042874;28;89363;-79
2022/01/30 14:08:01;;;;;;;6.25;1.73;;;7.50;99.90;;;;;;5043148;28;88966;-77
2022/01/30 14:10:32;;;;;;;4.97;1.80;;;7.60;99.90;;;;;;5042316;28;88792;-78
2022/01/30 14:13:02;;;;;;;8.20;1.70;;;7.70;99.90;;;;;;5028586;28;92652;-80
2022/01/30 14:15:28;;;;;;;9.43;1.63;;;7.80;99.90;;;;;;5048770;28;89149;-83
2022/01/30 14:18:17;;;;;;;6.32;1.70;;;7.80;99.90;;;;;;5028443;28;88910;-79
2022/01/30 14:20:46;;;;;;;11.63;2.17;;;7.80;99.90;;;;;;5043129;28;88876;-76
2022/01/30 14:23:14;;;;;;;5.43;1.70;;;7.90;99.90;;;;;;5041912;28;89665;-77
2022/01/30 14:25:41;;;;;;;9.10;2.30;;;8.00;99.90;;;;;;5042167;28;89563;-76
2022/01/30 14:28:27;;;;;;;5.80;1.98;;;8.00;99.90;;;;;;5023723;28;89026;-77
2022/01/30 14:30:56;;;;;;;5.60;1.92;;;8.10;99.90;;;;;;5024979;28;89125;-76
2022/01/30 14:33:22;;;;;;;4.90;1.60;;;8.10;99.90;;;;;;5041752;28;89465;-79
2022/01/30 14:35:49;;;;;;;8.13;1.75;;;8.00;99.90;;;;;;5024443;28;91236;-79
2022/01/30 14:38:15;;;;;;;7.68;1.88;;;7.90;99.90;;;;;;5042591;28;89025;-78
2022/01/30 14:40:40;;;;;;;5.55;2.15;;;7.90;99.90;;;;;;5042447;28;89314;-78
2022/01/30 14:43:08;;;;;;;10.27;1.83;;;7.90;99.90;;;;;;5022374;28;93062;-77
2022/01/30 14:45:35;;;;;;;7.07;1.58;;;7.70;99.90;;;;;;5042740;28;89743;-78
2022/01/30 14:48:01;;;;;;;7.35;1.85;;;7.70;99.90;;;;;;5043524;28;89116;-79
2022/01/30 14:50:28;;;;;;;7.35;1.95;;;7.70;99.90;;;;;;5024979;28;88565;-80
2022/01/30 14:52:54;;;;;;;6.13;1.77;;;7.70;99.90;;;;;;5023719;28;92027;-78
2022/01/30 14:55:22;;;;;;;11.07;2.10;;;7.60;99.90;;;;;;5023699;28;91676;-77
2022/01/30 14:57:49;;;;;;;6.05;2.05;;;7.60;99.90;;;;;;5042199;28;89054;-76
2022/01/30 15:00:18;;;;;;;7.65;2.03;;;7.70;99.90;;;;;;5041370;28;88857;-76
2022/01/30 15:02:45;;;;;;;7.95;2.13;;;7.70;99.90;;;;;;5040901;27;90204;-77
2022/01/30 15:05:10;;;;;;;8.73;2.33;;;7.70;99.90;;;;;;5041671;28;89046;-77
2022/01/30 15:07:36;;;;;;;7.70;1.90;;;7.70;99.90;;;;;;5042121;28;88844;-77
2022/01/30 15:10:02;;;;;;;10.55;2.10;;;7.70;99.90;;;;;;5041296;28;89213;-78
2022/01/30 15:12:28;;;;;;;8.25;1.80;;;7.60;99.90;;;;;;5040034;28;89763;-76
2022/01/30 15:14:54;;;;;;;8.27;2.13;;;7.50;99.90;;;;;;5041535;28;88971;-76
2022/01/30 15:17:29;;;;;;;8.73;2.63;;;7.50;99.90;;;;;;5041182;28;88960;-77
2022/01/30 15:19:54;;;;;;;7.95;2.00;;;7.40;99.90;;;;;;5041225;28;89038;-77
2022/01/30 15:22:22;;;;;;;11.10;2.47;;;7.40;99.90;;;;;;5022208;28;93212;-76
2022/01/30 15:24:51;;;;;;;11.07;1.95;;;7.30;99.90;;;;;;5040847;28;88999;-76
2022/01/30 15:27:17;;;;;;;7.45;1.70;;;7.30;99.90;;;;;;5040824;28;89132;-75
2022/01/30 15:29:43;;;;;;;5.03;1.58;;;7.20;99.90;;;;;;5041349;28;88342;-76
2022/01/30 15:32:08;;;;;;;8.18;1.80;;;7.20;99.90;;;;;;5022278;28;93313;-75
2022/01/30 15:34:34;;;;;;;6.97;1.77;;;7.10;99.90;;;;;;5041113;28;89017;-76
2022/01/30 15:37:00;;;;;;;8.40;2.22;;;7.10;99.90;;;;;;5040947;28;88421;-74
2022/01/30 15:39:25;;;;;;;10.65;2.40;;;6.90;99.90;;;;;;5040578;28;89218;-77
2022/01/30 15:41:54;;;;;;;9.15;2.30;;;6.80;99.90;;;;;;5040917;28;88904;-74
2022/01/30 15:44:21;;;;;;;12.55;2.10;;;6.60;99.90;;;;;;5040194;28;89043;-74
2022/01/30 15:49:31;;;;;;;7.38;2.33;;;6.40;99.90;;;;;;5041296;28;88932;-76
2022/01/30 15:51:57;;;;;;;12.32;3.58;;;6.20;99.90;;;;;;5022296;28;91690;-76
2022/01/30 15:54:23;;;;;;;9.65;2.90;;;6.20;99.90;;;;;;5040485;28;88990;-76
2022/01/30 15:56:50;;;;;;;12.40;3.40;;;6.20;99.90;;;;;;5040822;28;88908;-76
2022/01/30 15:59:20;;;;;;;11.65;4.15;;;6.20;99.90;;;;;;5021872;28;88884;-76
2022/01/30 16:01:48;;;;;;;8.70;3.20;;;6.20;99.90;;;;;;5037974;28;91868;-76
2022/01/30 16:04:13;;;;;;;7.47;2.60;;;6.10;99.90;;;;;;5037472;28;91388;-76
2022/01/30 16:06:41;;;;;;;11.05;2.55;;;6.00;99.90;;;;;;5040794;28;88947;-79
2022/01/30 16:09:11;;;;;;;8.32;2.38;;;5.80;99.90;;;;;;5022105;28;89176;-76
2022/01/30 16:16:54;;;;;;;8.52;2.33;;;5.50;99.90;;;;;;5040444;28;89037;-76
2022/01/30 16:19:20;;;;;;;11.60;2.80;;;5.50;99.90;;;;;;5038177;27;89214;-76
2022/01/30 16:21:46;;;;;;;12.05;3.40;;;5.50;99.90;;;;;;5040088;28;90758;-76
2022/01/30 16:24:11;;;;;;;8.40;3.25;;;5.50;99.90;;;;;;5039480;28;90113;-76
2022/01/30 16:26:38;;;;;;;11.77;4.63;;;5.40;99.90;;;;;;5039883;28;89028;-76
2022/01/30 16:29:04;;;;;;;14.88;5.65;;;5.30;99.90;;;;;;5040318;28;88899;-76
2022/01/30 16:31:29;;;;;;;14.88;6.45;;;5.30;99.90;;;;;;5021930;28;91799;-75
2022/01/30 16:33:59;;;;;;;12.88;7.00;;;5.20;99.90;;;;;;5021578;28;89960;-75
2022/01/30 16:36:26;;;;;;;13.57;6.40;;;5.10;99.90;;;;;;5041430;28;89231;-74
2022/01/30 16:38:52;;;;;;;13.75;6.80;;;5.10;99.90;;;;;;5022430;28;89304;-74
2022/01/30 16:41:20;;;;;;;12.98;6.35;;;5.10;99.90;;;;;;5022326;28;90679;-75
2022/01/30 16:43:58;;;;;;;11.00;6.80;;;5.10;99.90;;;;;;5033447;28;89194;-74
2022/01/30 16:48:58;;;;;;;9.60;3.58;;;5.00;99.90;;;;;;5020266;28;88908;-75
2022/01/30 16:51:24;;;;;;;12.23;3.55;;;5.00;99.90;;;;;;5021245;28;89830;-74
2022/01/30 16:53:50;;;;;;;12.77;3.60;;;5.00;99.90;;;;;;5020079;28;89038;-74
2022/01/30 16:56:17;;;;;;;12.57;3.70;;;4.90;99.90;;;;;;5021976;28;88963;-76
2022/01/30 16:58:43;;;;;;;8.02;3.38;;;4.90;99.90;;;;;;5021456;28;89248;-80
2022/01/30 17:01:09;;;;;;;12.38;3.50;;;4.80;99.90;;;;;;5022023;28;89536;-75
2022/01/30 17:03:35;;;;;;;13.23;3.70;;;4.70;99.90;;;;;;5020840;28;90904;-75
2022/01/30 17:06:01;;;;;;;10.68;3.88;;;4.70;99.90;;;;;;5021588;28;89185;-78
2022/01/30 17:08:28;;;;;;;15.27;4.15;;;4.80;99.90;;;;;;5020505;28;89183;-75
2022/01/30 17:10:59;;;;;;;12.60;4.10;;;4.70;99.90;;;;;;5020332;28;88886;-74
2022/01/30 17:13:25;;;;;;;10.75;3.53;;;4.80;99.90;;;;;;5020293;28;89107;-74
2022/01/30 17:15:52;;;;;;;9.95;3.60;;;4.80;99.90;;;;;;5020342;28;89017;-77
2022/01/30 17:18:18;;;;;;;12.25;3.65;;;4.70;99.90;;;;;;5020960;28;89218;-79
2022/01/30 17:20:46;;;;;;;12.32;3.80;;;4.70;99.90;;;;;;5021290;28;88938;-78
2022/01/30 17:23:13;;;;;;;10.68;3.80;;;4.70;99.90;;;;;;5017953;28;91898;-78
2022/01/30 17:25:42;;;;;;;13.88;4.40;;;4.70;99.90;;;;;;5020159;28;89044;-79
2022/01/30 17:28:09;;;;;;;11.82;4.45;;;4.70;99.90;;;;;;5019872;28;89184;-77
2022/01/30 17:30:35;;;;;;;14.23;4.80;;;4.70;99.90;;;;;;5020608;28;88908;-76
2022/01/30 17:33:01;;;;;;;11.02;3.85;;;4.90;99.90;;;;;;5031141;28;89416;-74
2022/01/30 17:35:29;;;;;;;14.13;4.07;;;5.00;99.90;;;;;;5043260;28;89008;-75
2022/01/30 17:37:56;;;;;;;11.27;3.50;;;5.00;99.90;;;;;;5024294;28;88889;-76
2022/01/30 17:40:23;;;;;;;9.50;4.10;;;5.10;99.90;;;;;;5044314;28;89616;-77
2022/01/30 17:42:50;;;;;;;10.48;3.95;;;5.20;99.90;;;;;;5023498;28;91848;-75
2022/01/30 17:45:17;;;;;;;13.45;4.10;;;5.20;99.90;;;;;;5042735;28;89070;-75
2022/01/30 17:47:44;;;;;;;7.60;3.10;;;5.20;99.90;;;;;;5040556;28;89211;-76
2022/01/30 17:50:11;;;;;;;13.13;3.60;;;5.20;99.90;;;;;;5042088;28;89679;-76
2022/01/30 17:52:36;;;;;;;10.43;3.28;;;5.20;99.90;;;;;;5042090;28;89623;-76
2022/01/30 17:55:04;;;;;;;14.15;3.33;;;5.20;99.90;;;;;;5042559;28;89137;-77
2022/01/30 17:57:30;;;;;;;11.40;3.22;;;5.20;99.90;;;;;;5042601;28;88766;-76
2022/01/30 17:59:56;;;;;;;14.23;3.45;;;5.30;99.90;;;;;;5042663;28;90034;-76
2022/01/30 18:02:22;;;;;;;13.50;2.80;;;5.30;99.90;;;;;;5023744;28;91216;-76
2022/01/30 18:04:49;;;;;;;10.57;3.30;;;5.30;99.90;;;;;;5044622;28;88918;-75
2022/01/30 18:07:17;;;;;;;10.52;3.28;;;5.30;99.90;;;;;;5045203;28;88888;-81
2022/01/30 18:09:42;;;;;;;8.63;2.65;;;5.30;99.90;;;;;;5043771;28;89634;-84
2022/01/30 18:12:10;;;;;;;13.73;3.60;;;5.40;99.90;;;;;;5024766;28;90796;-77
2022/01/30 18:14:37;;;;;;;9.32;2.70;;;5.50;99.90;;;;;;5042427;28;89312;-77
2022/01/30 18:17:04;;;;;;;11.15;3.47;;;5.50;99.90;;;;;;5044887;28;88975;-77
2022/01/30 18:19:29;;;;;;;12.02;3.13;;;5.40;99.90;;;;;;5042283;28;89827;-74
2022/01/30 18:21:55;;;;;;;13.20;3.30;;;5.40;99.90;;;;;;5042259;28;90157;-75
2022/01/30 18:24:21;;;;;;;10.43;3.28;;;5.40;99.90;;;;;;5042473;28;89100;-76
2022/01/30 18:26:46;;;;;;;12.07;3.47;;;5.30;99.90;;;;;;5043199;28;88833;-76
2022/01/30 18:29:15;;;;;;;11.45;3.42;;;5.30;99.90;;;;;;5042248;28;89745;-77
2022/01/30 18:31:44;;;;;;;14.13;5.20;;;5.20;99.90;;;;;;5041999;28;89397;-77
2022/01/30 18:34:10;;;;;;;11.82;3.08;;;5.20;99.90;;;;;;5041832;28;89009;-76
2022/01/30 18:36:39;;;;;;;18.10;6.07;;;5.20;99.90;;;;;;5042250;28;89187;-76
2022/01/30 18:39:07;;;;;;;14.48;4.72;;;5.10;99.90;;;;;;5042129;28;88880;-76
2022/01/30 18:41:34;;;;;;;16.33;6.20;;;5.00;99.90;;;;;;5042766;28;89368;-76
2022/01/30 18:44:05;;;;;;;13.60;3.55;;;4.90;99.90;;;;;;5023722;28;89901;-76
2022/01/30 18:46:31;;;;;;;14.15;5.90;;;5.00;99.90;;;;;;5043282;28;89290;-76
2022/01/30 18:48:57;;;;;;;11.32;3.90;;;4.90;99.90;;;;;;5042076;28;89003;-77
2022/01/30 18:51:22;;;;;;;18.02;7.45;;;4.90;99.90;;;;;;5023204;28;91796;-77
2022/01/30 18:53:48;;;;;;;9.73;3.65;;;4.90;99.90;;;;;;5023403;28;89022;-78
2022/01/30 18:56:14;;;;;;;17.42;4.75;;;4.90;99.90;;;;;;5041823;28;88943;-75
2022/01/30 18:58:40;;;;;;;19.88;7.50;;;4.80;99.90;;;;;;5041667;28;88936;-75
2022/01/30 19:01:06;;;;;;;11.45;4.57;;;4.70;99.90;;;;;;5042069;28;88799;-77
2022/01/30 19:03:31;;;;;;;14.40;4.82;;;4.70;99.90;;;;;;5042419;28;89042;-75
2022/01/30 19:05:57;;;;;;;10.75;3.55;;;4.80;99.90;;;;;;5042137;28;89177;-75
2022/01/30 19:08:23;;;;;;;16.35;3.80;;;4.80;99.90;;;;;;5041355;28;89676;-76
2022/01/30 19:10:50;;;;;;;16.27;3.35;;;4.80;99.90;;;;;;5041057;28;89377;-77
2022/01/30 19:13:15;;;;;;;9.70;2.70;;;4.70;99.90;;;;;;5041065;28;88863;-76
2022/01/30 19:15:41;;;;;;;10.75;3.38;;;4.70;99.90;;;;;;5022170;28;89031;-77
2022/01/30 19:18:07;;;;;;;14.90;3.22;;;4.60;99.90;;;;;;5039362;28;90198;-75
2022/01/30 19:20:34;;;;;;;9.85;3.00;;;4.50;99.90;;;;;;5040775;28;89584;-77
2022/01/30 19:23:00;;;;;;;12.10;3.40;;;4.40;99.90;;;;;;5042606;28;89078;-83
2022/01/30 19:25:26;;;;;;;10.82;4.20;;;4.40;99.90;;;;;;5023545;28;88821;-77
2022/01/30 19:27:52;;;;;;;9.55;3.33;;;4.30;99.90;;;;;;5022846;28;89981;-76
2022/01/30 19:30:18;;;;;;;16.08;6.80;;;4.10;99.90;;;;;;5040865;28;89209;-75
2022/01/30 19:32:46;;;;;;;21.02;10.25;;;3.90;99.90;;;;;;5022669;28;88887;-76
2022/01/30 19:35:11;;;;;;;17.80;7.75;;;3.80;99.90;;;;;;5040450;28;89277;-77
2022/01/30 19:37:37;;;;;;;11.23;4.82;;;3.60;99.90;;;;;;5041168;28;90821;-76
2022/01/30 19:40:05;;;;;;;14.27;4.70;;;3.60;99.90;;;;;;5041054;28;89727;-77
2022/01/30 19:42:35;;;;;;;11.57;4.40;;;3.60;99.90;;;;;;5040631;28;88939;-77
2022/01/30 19:45:01;;;;;;;11.73;4.00;;;3.50;99.90;;;;;;5022468;28;88949;-75
2022/01/30 19:47:28;;;;;;;13.95;4.85;;;3.50;99.90;;;;;;5040767;28;90168;-78
2022/01/30 19:49:55;;;;;;;13.65;4.68;;;3.50;99.90;;;;;;5022212;28;91265;-76
2022/01/30 19:52:21;;;;;;;10.35;3.95;;;3.50;99.90;;;;;;5040882;28;89012;-76
2022/01/30 19:54:47;;;;;;;16.77;4.55;;;3.40;99.90;;;;;;5021309;28;89187;-77
2022/01/30 19:57:13;;;;;;;9.60;4.22;;;3.40;99.90;;;;;;5040719;28;89584;-75
2022/01/30 19:59:39;;;;;;;15.13;3.95;;;3.40;99.90;;;;;;5040584;28;89603;-75
2022/01/30 20:02:06;;;;;;;11.77;4.07;;;3.30;99.90;;;;;;5040825;28;88808;-75
2022/01/30 20:04:32;;;;;;;14.23;3.92;;;3.30;99.90;;;;;;5040343;28;89126;-76
2022/01/30 20:06:57;;;;;;;14.32;4.60;;;3.30;99.90;;;;;;5040499;28;90228;-77
2022/01/30 20:09:23;;;;;;;14.93;4.80;;;3.10;99.90;;;;;;5040581;28;89003;-78
2022/01/30 20:11:49;;;;;;;8.45;4.53;;;3.10;99.90;;;;;;5022375;28;89135;-76
2022/01/30 20:14:15;;;;;;;13.50;4.72;;;3.10;99.90;;;;;;5040467;28;88780;-76
2022/01/30 20:16:40;;;;;;;12.77;4.15;;;3.00;99.90;;;;;;5041024;27;88973;-82
2022/01/30 20:19:06;;;;;;;12.23;4.20;;;2.90;99.90;;;;;;5041568;28;88790;-77
2022/01/30 20:21:32;;;;;;;13.60;5.30;;;2.70;99.90;;;;;;5041443;27;89507;-77
2022/01/30 20:23:58;;;;;;;16.35;4.72;;;2.60;99.90;;;;;;5039845;28;89046;-77
2022/01/30 20:26:23;;;;;;;13.82;4.97;;;2.50;99.90;;;;;;5040627;28;88998;-76
2022/01/30 20:28:49;;;;;;;17.70;5.22;;;2.40;99.90;;;;;;5039621;28;89474;-76
2022/01/30 20:31:14;;;;;;;14.27;5.97;;;2.30;99.90;;;;;;5039814;28;88951;-77
2022/01/30 20:33:40;;;;;;;11.18;4.50;;;2.20;99.90;;;;;;5039562;28;89009;-76
2022/01/30 20:36:06;;;;;;;14.00;5.18;;;2.00;99.90;;;;;;5039769;28;90012;-78
2022/01/30 20:38:31;;;;;;;14.48;5.20;;;1.90;99.90;;;;;;5040073;28;89710;-79
2022/01/30 20:40:57;;;;;;;13.15;5.28;;;1.70;99.90;;;;;;5039933;28;88899;-79
2022/01/30 20:43:23;;;;;;;13.32;5.45;;;1.80;99.90;;;;;;5039627;28;89148;-77
2022/01/30 20:45:52;;;;;;;13.73;5.35;;;1.90;99.90;;;;;;5039998;28;89438;-77
2022/01/30 20:48:18;;;;;;;16.17;5.85;;;1.80;99.90;;;;;;5039457;28;89145;-78
2022/01/30 20:50:43;;;;;;;13.65;6.03;;;1.70;99.90;;;;;;5039904;28;88946;-77
2022/01/30 20:53:09;;;;;;;19.83;5.88;;;1.50;99.90;;;;;;5039571;28;89041;-77
2022/01/30 20:55:34;;;;;;;19.77;8.27;;;1.40;99.90;;;;;;5039338;28;88904;-78
2022/01/30 20:58:00;;;;;;;14.23;5.97;;;1.30;99.90;;;;;;5039453;28;89331;-78
2022/01/30 21:00:26;;;;;;;16.33;5.95;;;1.20;99.90;;;;;;5039467;28;89129;-78
2022/01/30 21:02:51;;;;;;;17.98;6.38;;;1.10;99.90;;;;;;5039379;28;89167;-78
2022/01/30 21:05:17;;;;;;;27.17;11.43;;;0.90;99.90;;;;;;5039446;28;89822;-79
2022/01/30 21:07:43;;;;;;;20.77;6.53;;;0.90;99.90;;;;;;5038596;28;89638;-77
2022/01/30 21:10:15;;;;;;;25.95;9.13;;;0.80;99.90;;;;;;5040801;28;88942;-78
2022/01/30 21:12:44;;;;;;;19.98;7.80;;;0.70;99.90;;;;;;5021361;28;89154;-77
2022/01/30 21:15:13;;;;;;;18.10;7.10;;;0.60;99.90;;;;;;5039603;28;89696;-76
2022/01/30 21:17:38;;;;;;;13.68;5.93;;;0.50;99.90;;;;;;5039452;28;88973;-75
2022/01/30 21:20:06;;;;;;;13.90;6.07;;;0.40;99.90;;;;;;5039670;28;88867;-76
2022/01/30 21:22:32;;;;;;;20.55;9.68;;;0.30;99.90;;;;;;5021264;28;89269;-76
2022/01/30 21:24:58;;;;;;;21.30;7.40;;;0.20;99.90;;;;;;5038751;28;89944;-76
2022/01/30 21:27:23;;;;;;;23.92;8.10;;;0.10;99.90;;;;;;5039480;28;89482;-76
2022/01/30 21:29:49;;;;;;;15.70;5.47;;;0.10;99.90;;;;;;5039407;28;88938;-75
2022/01/30 21:32:14;;;;;;;12.57;5.13;;;0.10;99.90;;;;;;5038788;28;88954;-76
2022/01/30 21:34:40;;;;;;;15.10;5.13;;;0.10;99.90;;;;;;5020565;28;93095;-76
2022/01/30 21:37:06;;;;;;;14.55;4.97;;;0.00;99.90;;;;;;5038870;28;89222;-76
2022/01/30 21:39:32;;;;;;;16.90;5.10;;;-0.10;99.90;;;;;;5020752;28;89065;-76
2022/01/30 21:41:58;;;;;;;13.18;4.88;;;-0.20;99.90;;;;;;5039293;28;89329;-75
2022/01/30 21:44:23;;;;;;;14.40;5.82;;;-0.20;99.90;;;;;;5038641;28;89648;-75
2022/01/30 21:46:49;;;;;;;13.30;6.45;;;-0.30;99.90;;;;;;5038558;28;89199;-76
2022/01/30 21:49:15;;;;;;;16.58;7.70;;;-0.40;99.90;;;;;;5038630;28;89025;-75
2022/01/30 21:51:40;;;;;;;20.60;9.45;;;-0.40;99.90;;;;;;5039096;28;89286;-76
2022/01/30 21:54:06;;;;;;;18.98;9.50;;;-0.40;99.90;;;;;;5020021;28;92485;-75
2022/01/30 21:56:32;;;;;;;22.05;8.73;;;-0.40;99.90;;;;;;5038699;28;89048;-75
2022/01/30 21:58:57;;;;;;;18.02;7.22;;;-0.40;99.90;;;;;;5038854;28;88958;-76
2022/01/30 22:01:23;;;;;;;19.00;7.93;;;-0.50;99.90;;;;;;5038758;28;89025;-76
2022/01/30 22:03:49;;;;;;;16.17;7.70;;;-0.60;99.90;;;;;;5020227;28;91784;-76
2022/01/30 22:06:15;;;;;;;15.52;6.55;;;-0.60;99.90;;;;;;5038827;28;88985;-77
2022/01/30 22:08:41;;;;;;;19.42;7.80;;;-0.60;99.90;;;;;;5007567;28;89371;-75
2022/01/30 22:11:07;;;;;;;13.98;7.18;;;-0.60;99.90;;;;;;5017254;28;88832;-75
2022/01/30 22:13:39;;;;;;;18.75;6.43;;;-0.70;99.90;;;;;;4999720;28;91817;-75
2022/01/30 22:16:07;;;;;;;17.30;6.75;;;-0.80;99.90;;;;;;5018677;28;89879;-75
2022/01/30 22:18:33;;;;;;;22.33;8.82;;;-0.90;99.90;;;;;;5001875;28;89039;-75